KNSE/NSE METAR and TAF weather

Enter ICAO airport designator
Station Type Date Time Source
KNSE METAR 2021/01/20 22:56 UTC NOAA

KNSE 202256Z 32003KT 10SM FEW070 SCT180 BKN250 17/09 A3023 RMK SLP223 T01670094


Station Type Date Time Source
KNSE Decoded METAR 2021/01/20 22:56 UTC NOAA

MILTON WHITING FIELD (NORTH), FL, United States (KNSE) 30-44N 87-01W 60M
Jan 20, 2021 - 05:56 PM EST / 2021.01.20 2256 UTC
Wind: from the NW (320 degrees) at 3 MPH (3 KT):0
Visibility: 10 mile(s):0
Sky conditions: mostly cloudy
Temperature: 62.1 F (16.7 C)
Dew Point: 48.9 F (9.4 C)
Relative Humidity: 62%
Pressure (altimeter): 30.23 in. Hg (1023 hPa)
ob: KNSE 202256Z 32003KT 10SM FEW070 SCT180 BKN250 17/09 A3023 RMK SLP223 T01670094
cycle: 23

Station Type Date Time Source
KNSE TAF 2021/01/20 23:23 UTC NOAA

TAF KNSE 2023/2123 VRB05KT 9999 FEW070 BKN250 QNH3015INS
FM210900 24005KT 9999 FEW020 SCT100 BKN200 QNH3010INS
TEMPO 2109/2113 6000 BR
FM211500 22008KT 9999 SCT050 SCT100 BKN200 QNH3000INS
FM212000 21009KT 9999 SCT020 BKN050 OVC100 QNH2993INS
TEMPO 2120/2123 21009G15KT BKN020 OVC050 AUTOMATED SENSOR METWATCH 2105 TIL 2112 T08/2112Z T16/2119Z FN20029

Example: see airport list